sensor_id;sensor_type;location;lat;lon;timestamp;temperature;humidity
29453;DHT22;16424;50.956;5.320;2023-04-03T00:00:12;3.80;99.90
29453;DHT22;16424;50.956;5.320;2023-04-03T00:02:38;3.80;99.90
29453;DHT22;16424;50.956;5.320;2023-04-03T00:05:06;3.80;99.90
29453;DHT22;16424;50.956;5.320;2023-04-03T00:07:32;3.80;99.90
29453;DHT22;16424;50.956;5.320;2023-04-03T00:09:57;3.80;99.90
29453;DHT22;16424;50.956;5.320;2023-04-03T00:12:23;3.70;99.90
29453;DHT22;16424;50.956;5.320;2023-04-03T00:14:48;3.70;99.90
29453;DHT22;16424;50.956;5.320;2023-04-03T00:17:14;3.60;99.90
29453;DHT22;16424;50.956;5.320;2023-04-03T00:19:40;3.70;99.90
29453;DHT22;16424;50.956;5.320;2023-04-03T00:22:05;3.60;99.90
29453;DHT22;16424;50.956;5.320;2023-04-03T00:24:31;3.60;99.90
29453;DHT22;16424;50.956;5.320;2023-04-03T00:26:56;3.60;99.90
29453;DHT22;16424;50.956;5.320;2023-04-03T00:29:22;3.60;99.90
29453;DHT22;16424;50.956;5.320;2023-04-03T00:31:48;3.50;99.90
29453;DHT22;16424;50.956;5.320;2023-04-03T00:34:13;3.50;99.90
29453;DHT22;16424;50.956;5.320;2023-04-03T00:36:39;3.50;99.90
29453;DHT22;16424;50.956;5.320;2023-04-03T00:39:05;3.50;99.90
29453;DHT22;16424;50.956;5.320;2023-04-03T00:41:31;3.50;99.90
29453;DHT22;16424;50.956;5.320;2023-04-03T00:43:57;3.50;99.90
29453;DHT22;16424;50.956;5.320;2023-04-03T00:46:23;3.60;99.90
29453;DHT22;16424;50.956;5.320;2023-04-03T00:48:49;3.60;99.90
29453;DHT22;16424;50.956;5.320;2023-04-03T00:51:19;3.60;99.90
29453;DHT22;16424;50.956;5.320;2023-04-03T00:53:55;3.50;99.90
29453;DHT22;16424;50.956;5.320;2023-04-03T00:56:24;3.50;99.90
29453;DHT22;16424;50.956;5.320;2023-04-03T00:58:55;3.50;99.90
29453;DHT22;16424;50.956;5.320;2023-04-03T01:01:25;3.50;99.90
29453;DHT22;16424;50.956;5.320;2023-04-03T01:03:51;3.50;99.90
29453;DHT22;16424;50.956;5.320;2023-04-03T01:06:21;3.40;99.90
29453;DHT22;16424;50.956;5.320;2023-04-03T01:08:49;3.40;99.90
29453;DHT22;16424;50.956;5.320;2023-04-03T01:11:16;3.30;99.90
29453;DHT22;16424;50.956;5.320;2023-04-03T01:13:41;3.30;99.90
29453;DHT22;16424;50.956;5.320;2023-04-03T01:16:08;3.40;99.90
29453;DHT22;16424;50.956;5.320;2023-04-03T01:18:37;3.40;99.90
29453;DHT22;16424;50.956;5.320;2023-04-03T01:26:31;3.40;99.90
29453;DHT22;16424;50.956;5.320;2023-04-03T01:28:59;3.40;99.90
29453;DHT22;16424;50.956;5.320;2023-04-03T01:34:11;3.40;99.90
29453;DHT22;16424;50.956;5.320;2023-04-03T01:36:36;3.40;99.90
29453;DHT22;16424;50.956;5.320;2023-04-03T01:39:02;3.40;99.90
29453;DHT22;16424;50.956;5.320;2023-04-03T01:41:28;3.40;99.90
29453;DHT22;16424;50.956;5.320;2023-04-03T01:43:54;3.40;99.90
29453;DHT22;16424;50.956;5.320;2023-04-03T01:46:20;3.50;99.90
29453;DHT22;16424;50.956;5.320;2023-04-03T01:48:47;3.50;99.90
29453;DHT22;16424;50.956;5.320;2023-04-03T01:51:12;3.50;99.90
29453;DHT22;16424;50.956;5.320;2023-04-03T01:53:38;3.50;99.90
29453;DHT22;16424;50.956;5.320;2023-04-03T01:56:04;3.50;99.90
29453;DHT22;16424;50.956;5.320;2023-04-03T01:58:30;3.50;99.90
29453;DHT22;16424;50.956;5.320;2023-04-03T02:00:56;3.50;99.90
29453;DHT22;16424;50.956;5.320;2023-04-03T02:03:22;3.50;99.90
29453;DHT22;16424;50.956;5.320;2023-04-03T02:05:48;3.50;99.90
29453;DHT22;16424;50.956;5.320;2023-04-03T02:08:13;3.50;99.90
29453;DHT22;16424;50.956;5.320;2023-04-03T02:10:39;3.40;99.90
29453;DHT22;16424;50.956;5.320;2023-04-03T02:13:05;3.40;99.90
29453;DHT22;16424;50.956;5.320;2023-04-03T02:15:31;3.40;99.90
29453;DHT22;16424;50.956;5.320;2023-04-03T02:17:56;3.40;99.90
29453;DHT22;16424;50.956;5.320;2023-04-03T02:20:22;3.30;99.90
29453;DHT22;16424;50.956;5.320;2023-04-03T02:22:48;3.30;99.90
29453;DHT22;16424;50.956;5.320;2023-04-03T02:25:14;3.30;99.90
29453;DHT22;16424;50.956;5.320;2023-04-03T02:27:40;3.30;99.90
29453;DHT22;16424;50.956;5.320;2023-04-03T02:30:06;3.30;99.90
29453;DHT22;16424;50.956;5.320;2023-04-03T02:32:32;3.30;99.90
29453;DHT22;16424;50.956;5.320;2023-04-03T02:34:58;3.30;99.90
29453;DHT22;16424;50.956;5.320;2023-04-03T02:37:24;3.30;99.90
29453;DHT22;16424;50.956;5.320;2023-04-03T02:39:50;3.30;99.90
29453;DHT22;16424;50.956;5.320;2023-04-03T02:42:15;3.30;99.90
29453;DHT22;16424;50.956;5.320;2023-04-03T02:44:41;3.20;99.90
29453;DHT22;16424;50.956;5.320;2023-04-03T02:47:07;3.20;99.90
29453;DHT22;16424;50.956;5.320;2023-04-03T02:49:32;3.20;99.90
29453;DHT22;16424;50.956;5.320;2023-04-03T02:51:58;3.10;99.90
29453;DHT22;16424;50.956;5.320;2023-04-03T02:54:24;3.10;99.90
29453;DHT22;16424;50.956;5.320;2023-04-03T02:56:53;3.10;99.90
29453;DHT22;16424;50.956;5.320;2023-04-03T02:59:19;3.00;99.90
29453;DHT22;16424;50.956;5.320;2023-04-03T03:01:45;3.00;99.90
29453;DHT22;16424;50.956;5.320;2023-04-03T03:04:11;3.00;99.90
29453;DHT22;16424;50.956;5.320;2023-04-03T03:06:36;2.90;99.90
29453;DHT22;16424;50.956;5.320;2023-04-03T03:09:03;2.80;99.90
29453;DHT22;16424;50.956;5.320;2023-04-03T03:11:29;2.80;99.90
29453;DHT22;16424;50.956;5.320;2023-04-03T03:13:55;2.80;99.90
29453;DHT22;16424;50.956;5.320;2023-04-03T03:16:21;2.70;99.90
29453;DHT22;16424;50.956;5.320;2023-04-03T03:18:46;2.60;99.90
29453;DHT22;16424;50.956;5.320;2023-04-03T03:21:12;2.60;99.90
29453;DHT22;16424;50.956;5.320;2023-04-03T03:23:38;2.50;99.90
29453;DHT22;16424;50.956;5.320;2023-04-03T03:26:05;2.50;99.90
29453;DHT22;16424;50.956;5.320;2023-04-03T03:28:32;2.50;99.90
29453;DHT22;16424;50.956;5.320;2023-04-03T03:30:58;2.50;99.90
29453;DHT22;16424;50.956;5.320;2023-04-03T03:33:24;2.50;99.90
29453;DHT22;16424;50.956;5.320;2023-04-03T03:35:51;2.60;99.90
29453;DHT22;16424;50.956;5.320;2023-04-03T03:38:16;2.50;99.90
29453;DHT22;16424;50.956;5.320;2023-04-03T03:40:42;2.60;99.90
29453;DHT22;16424;50.956;5.320;2023-04-03T03:43:07;2.60;99.90
29453;DHT22;16424;50.956;5.320;2023-04-03T03:45:33;2.60;99.90
29453;DHT22;16424;50.956;5.320;2023-04-03T03:47:59;2.60;99.90
29453;DHT22;16424;50.956;5.320;2023-04-03T03:50:25;2.60;99.90
29453;DHT22;16424;50.956;5.320;2023-04-03T03:52:50;2.60;99.90
29453;DHT22;16424;50.956;5.320;2023-04-03T03:55:16;2.60;99.90
29453;DHT22;16424;50.956;5.320;2023-04-03T03:57:42;2.60;99.90
29453;DHT22;16424;50.956;5.320;2023-04-03T04:00:08;2.60;99.90
29453;DHT22;16424;50.956;5.320;2023-04-03T04:02:34;2.70;99.90
29453;DHT22;16424;50.956;5.320;2023-04-03T04:04:59;2.60;99.90
29453;DHT22;16424;50.956;5.320;2023-04-03T04:07:25;2.60;99.90
29453;DHT22;16424;50.956;5.320;2023-04-03T04:09:53;2.60;99.90
29453;DHT22;16424;50.956;5.320;2023-04-03T04:12:19;2.50;99.90
29453;DHT22;16424;50.956;5.320;2023-04-03T04:14:45;2.50;99.90
29453;DHT22;16424;50.956;5.320;2023-04-03T04:17:15;2.50;99.90
29453;DHT22;16424;50.956;5.320;2023-04-03T04:19:41;2.50;99.90
29453;DHT22;16424;50.956;5.320;2023-04-03T04:22:06;2.50;99.90
29453;DHT22;16424;50.956;5.320;2023-04-03T04:24:32;2.50;99.90
29453;DHT22;16424;50.956;5.320;2023-04-03T04:26:58;2.50;99.90
29453;DHT22;16424;50.956;5.320;2023-04-03T04:29:23;2.40;99.90
29453;DHT22;16424;50.956;5.320;2023-04-03T04:31:49;2.50;99.90
29453;DHT22;16424;50.956;5.320;2023-04-03T04:34:15;2.50;99.90
29453;DHT22;16424;50.956;5.320;2023-04-03T04:36:41;2.40;99.90
29453;DHT22;16424;50.956;5.320;2023-04-03T04:39:07;2.30;99.90
29453;DHT22;16424;50.956;5.320;2023-04-03T04:41:33;2.30;99.90
29453;DHT22;16424;50.956;5.320;2023-04-03T04:43:58;2.30;99.90
29453;DHT22;16424;50.956;5.320;2023-04-03T04:46:24;2.10;99.90
29453;DHT22;16424;50.956;5.320;2023-04-03T04:48:50;2.10;99.90
29453;DHT22;16424;50.956;5.320;2023-04-03T04:51:16;2.10;99.90
29453;DHT22;16424;50.956;5.320;2023-04-03T04:53:42;2.10;99.90
29453;DHT22;16424;50.956;5.320;2023-04-03T04:56:08;2.20;99.90
29453;DHT22;16424;50.956;5.320;2023-04-03T04:58:34;2.20;99.90
29453;DHT22;16424;50.956;5.320;2023-04-03T05:01:05;2.20;99.90
29453;DHT22;16424;50.956;5.320;2023-04-03T05:03:31;2.20;99.90
29453;DHT22;16424;50.956;5.320;2023-04-03T05:05:57;2.10;99.90
29453;DHT22;16424;50.956;5.320;2023-04-03T05:08:23;2.00;99.90
29453;DHT22;16424;50.956;5.320;2023-04-03T05:10:48;1.90;99.90
29453;DHT22;16424;50.956;5.320;2023-04-03T05:13:14;1.90;99.90
29453;DHT22;16424;50.956;5.320;2023-04-03T05:15:40;2.00;99.90
29453;DHT22;16424;50.956;5.320;2023-04-03T05:18:06;2.00;99.90
29453;DHT22;16424;50.956;5.320;2023-04-03T05:20:33;2.10;99.90
29453;DHT22;16424;50.956;5.320;2023-04-03T05:22:59;2.20;99.90
29453;DHT22;16424;50.956;5.320;2023-04-03T05:25:25;2.20;99.90
29453;DHT22;16424;50.956;5.320;2023-04-03T05:27:51;2.20;99.90
29453;DHT22;16424;50.956;5.320;2023-04-03T05:30:17;2.20;99.90
29453;DHT22;16424;50.956;5.320;2023-04-03T05:32:43;2.20;99.90
29453;DHT22;16424;50.956;5.320;2023-04-03T05:35:09;2.20;99.90
29453;DHT22;16424;50.956;5.320;2023-04-03T05:37:35;2.20;99.90
29453;DHT22;16424;50.956;5.320;2023-04-03T05:40:01;2.20;99.90
29453;DHT22;16424;50.956;5.320;2023-04-03T05:42:27;2.20;99.90
29453;DHT22;16424;50.956;5.320;2023-04-03T05:44:53;2.20;99.90
29453;DHT22;16424;50.956;5.320;2023-04-03T05:47:19;2.20;99.90
29453;DHT22;16424;50.956;5.320;2023-04-03T05:49:45;2.20;99.90
29453;DHT22;16424;50.956;5.320;2023-04-03T05:52:22;2.20;99.90
29453;DHT22;16424;50.956;5.320;2023-04-03T05:54:48;2.20;99.90
29453;DHT22;16424;50.956;5.320;2023-04-03T05:57:17;2.30;99.90
29453;DHT22;16424;50.956;5.320;2023-04-03T05:59:44;2.40;99.90
29453;DHT22;16424;50.956;5.320;2023-04-03T06:02:16;2.50;99.90
29453;DHT22;16424;50.956;5.320;2023-04-03T06:04:42;2.80;99.90
29453;DHT22;16424;50.956;5.320;2023-04-03T06:07:12;3.30;99.90
29453;DHT22;16424;50.956;5.320;2023-04-03T06:09:39;3.70;99.90
29453;DHT22;16424;50.956;5.320;2023-04-03T06:12:05;4.50;99.90
29453;DHT22;16424;50.956;5.320;2023-04-03T06:14:31;5.20;99.90
29453;DHT22;16424;50.956;5.320;2023-04-03T06:16:56;5.60;99.90
29453;DHT22;16424;50.956;5.320;2023-04-03T06:19:23;5.90;99.90
29453;DHT22;16424;50.956;5.320;2023-04-03T06:21:48;6.50;99.90
29453;DHT22;16424;50.956;5.320;2023-04-03T06:24:16;7.10;99.90
29453;DHT22;16424;50.956;5.320;2023-04-03T06:26:42;7.30;99.90
29453;DHT22;16424;50.956;5.320;2023-04-03T06:29:08;7.50;99.90
29453;DHT22;16424;50.956;5.320;2023-04-03T06:31:34;7.70;99.90
29453;DHT22;16424;50.956;5.320;2023-04-03T06:34:02;7.70;99.90
29453;DHT22;16424;50.956;5.320;2023-04-03T06:36:28;8.10;99.90
29453;DHT22;16424;50.956;5.320;2023-04-03T06:38:54;8.70;99.90
29453;DHT22;16424;50.956;5.320;2023-04-03T06:41:20;8.60;99.90
29453;DHT22;16424;50.956;5.320;2023-04-03T06:43:46;8.50;99.90
29453;DHT22;16424;50.956;5.320;2023-04-03T06:46:22;8.90;99.90
29453;DHT22;16424;50.956;5.320;2023-04-03T06:48:48;8.60;99.90
29453;DHT22;16424;50.956;5.320;2023-04-03T06:51:28;8.40;99.90
29453;DHT22;16424;50.956;5.320;2023-04-03T06:53:55;8.80;99.90
29453;DHT22;16424;50.956;5.320;2023-04-03T06:56:21;9.00;99.90
29453;DHT22;16424;50.956;5.320;2023-04-03T06:58:48;8.90;99.90
29453;DHT22;16424;50.956;5.320;2023-04-03T07:01:16;9.00;99.90
29453;DHT22;16424;50.956;5.320;2023-04-03T07:03:43;9.00;99.90
29453;DHT22;16424;50.956;5.320;2023-04-03T07:06:11;9.10;99.90
29453;DHT22;16424;50.956;5.320;2023-04-03T07:08:37;9.20;99.90
29453;DHT22;16424;50.956;5.320;2023-04-03T07:11:04;9.50;99.90
29453;DHT22;16424;50.956;5.320;2023-04-03T07:13:30;10.00;99.90
29453;DHT22;16424;50.956;5.320;2023-04-03T07:15:56;10.40;99.90
29453;DHT22;16424;50.956;5.320;2023-04-03T07:18:22;10.30;99.90
29453;DHT22;16424;50.956;5.320;2023-04-03T07:20:47;10.40;99.90
29453;DHT22;16424;50.956;5.320;2023-04-03T07:23:13;9.70;99.90
29453;DHT22;16424;50.956;5.320;2023-04-03T07:25:46;9.50;99.90
29453;DHT22;16424;50.956;5.320;2023-04-03T07:28:13;9.60;99.90
29453;DHT22;16424;50.956;5.320;2023-04-03T07:30:44;9.80;99.90
29453;DHT22;16424;50.956;5.320;2023-04-03T07:33:10;9.70;99.90
29453;DHT22;16424;50.956;5.320;2023-04-03T07:35:37;9.60;99.90
29453;DHT22;16424;50.956;5.320;2023-04-03T07:38:02;9.50;99.90
29453;DHT22;16424;50.956;5.320;2023-04-03T07:40:28;9.80;99.90
29453;DHT22;16424;50.956;5.320;2023-04-03T07:42:54;10.10;99.90
29453;DHT22;16424;50.956;5.320;2023-04-03T07:45:22;10.00;99.90
29453;DHT22;16424;50.956;5.320;2023-04-03T07:47:48;9.70;99.90
29453;DHT22;16424;50.956;5.320;2023-04-03T07:50:14;10.10;99.90
29453;DHT22;16424;50.956;5.320;2023-04-03T07:52:40;10.00;99.90
29453;DHT22;16424;50.956;5.320;2023-04-03T07:55:06;10.30;99.90
29453;DHT22;16424;50.956;5.320;2023-04-03T07:57:32;10.10;99.90
29453;DHT22;16424;50.956;5.320;2023-04-03T07:59:58;9.90;99.90
29453;DHT22;16424;50.956;5.320;2023-04-03T08:02:23;10.50;99.90
29453;DHT22;16424;50.956;5.320;2023-04-03T08:04:49;11.10;99.90
29453;DHT22;16424;50.956;5.320;2023-04-03T08:07:15;11.00;99.90
29453;DHT22;16424;50.956;5.320;2023-04-03T08:09:40;11.20;99.90
29453;DHT22;16424;50.956;5.320;2023-04-03T08:12:06;10.70;99.90
29453;DHT22;16424;50.956;5.320;2023-04-03T08:14:32;10.40;99.90
29453;DHT22;16424;50.956;5.320;2023-04-03T08:17:00;10.60;99.90
29453;DHT22;16424;50.956;5.320;2023-04-03T08:19:26;10.70;99.90
29453;DHT22;16424;50.956;5.320;2023-04-03T08:21:53;10.80;99.90
29453;DHT22;16424;50.956;5.320;2023-04-03T08:24:18;10.70;99.90
29453;DHT22;16424;50.956;5.320;2023-04-03T08:26:44;10.60;99.90
29453;DHT22;16424;50.956;5.320;2023-04-03T08:29:10;10.90;99.90
29453;DHT22;16424;50.956;5.320;2023-04-03T08:31:36;10.80;99.90
29453;DHT22;16424;50.956;5.320;2023-04-03T08:34:02;11.10;99.90
29453;DHT22;16424;50.956;5.320;2023-04-03T08:36:28;11.10;99.90
29453;DHT22;16424;50.956;5.320;2023-04-03T08:38:56;11.40;99.90
29453;DHT22;16424;50.956;5.320;2023-04-03T08:41:35;11.60;99.90
29453;DHT22;16424;50.956;5.320;2023-04-03T08:44:38;11.10;99.90
29453;DHT22;16424;50.956;5.320;2023-04-03T08:49:59;10.90;99.90
29453;DHT22;16424;50.956;5.320;2023-04-03T08:52:48;11.10;99.90
29453;DHT22;16424;50.956;5.320;2023-04-03T08:55:34;11.40;99.90
29453;DHT22;16424;50.956;5.320;2023-04-03T08:58:18;11.30;99.90
29453;DHT22;16424;50.956;5.320;2023-04-03T09:03:19;11.30;99.90
29453;DHT22;16424;50.956;5.320;2023-04-03T09:05:51;11.30;99.90
29453;DHT22;16424;50.956;5.320;2023-04-03T09:08:27;11.90;99.90
29453;DHT22;16424;50.956;5.320;2023-04-03T09:13:52;11.70;99.90
29453;DHT22;16424;50.956;5.320;2023-04-03T09:18:54;11.70;99.90
29453;DHT22;16424;50.956;5.320;2023-04-03T09:21:34;11.60;99.90
29453;DHT22;16424;50.956;5.320;2023-04-03T09:24:05;11.50;99.90
29453;DHT22;16424;50.956;5.320;2023-04-03T09:26:52;11.20;99.90
29453;DHT22;16424;50.956;5.320;2023-04-03T09:29:22;12.00;99.90
29453;DHT22;16424;50.956;5.320;2023-04-03T09:31:51;12.10;99.90
29453;DHT22;16424;50.956;5.320;2023-04-03T09:34:25;10.80;99.90
29453;DHT22;16424;50.956;5.320;2023-04-03T09:36:53;10.60;99.90
29453;DHT22;16424;50.956;5.320;2023-04-03T09:39:28;10.80;99.90
29453;DHT22;16424;50.956;5.320;2023-04-03T09:42:38;10.70;99.90
29453;DHT22;16424;50.956;5.320;2023-04-03T09:45:04;11.00;99.90
29453;DHT22;16424;50.956;5.320;2023-04-03T09:47:32;10.10;99.90
29453;DHT22;16424;50.956;5.320;2023-04-03T09:50:18;10.00;99.90
29453;DHT22;16424;50.956;5.320;2023-04-03T09:52:46;10.00;99.90
29453;DHT22;16424;50.956;5.320;2023-04-03T09:57:43;10.10;99.90
29453;DHT22;16424;50.956;5.320;2023-04-03T10:00:25;10.30;99.90
29453;DHT22;16424;50.956;5.320;2023-04-03T10:02:55;10.40;99.90
29453;DHT22;16424;50.956;5.320;2023-04-03T10:05:41;10.40;99.90
29453;DHT22;16424;50.956;5.320;2023-04-03T10:10:48;10.20;99.90
29453;DHT22;16424;50.956;5.320;2023-04-03T10:13:29;9.90;99.90
29453;DHT22;16424;50.956;5.320;2023-04-03T10:34:44;9.20;99.90
29453;DHT22;16424;50.956;5.320;2023-04-03T10:40:29;9.10;99.90
29453;DHT22;16424;50.956;5.320;2023-04-03T10:51:34;9.30;99.90
29453;DHT22;16424;50.956;5.320;2023-04-03T10:56:35;9.30;99.90
29453;DHT22;16424;50.956;5.320;2023-04-03T11:01:39;9.30;99.90
29453;DHT22;16424;50.956;5.320;2023-04-03T11:04:07;9.60;97.20
29453;DHT22;16424;50.956;5.320;2023-04-03T11:06:44;9.60;97.40
29453;DHT22;16424;50.956;5.320;2023-04-03T11:09:24;9.60;96.90
29453;DHT22;16424;50.956;5.320;2023-04-03T11:12:00;9.50;95.90
29453;DHT22;16424;50.956;5.320;2023-04-03T11:14:30;9.50;96.10
29453;DHT22;16424;50.956;5.320;2023-04-03T11:22:23;9.90;97.20
29453;DHT22;16424;50.956;5.320;2023-04-03T11:30:39;10.10;95.70
29453;DHT22;16424;50.956;5.320;2023-04-03T11:36:09;9.90;95.20
29453;DHT22;16424;50.956;5.320;2023-04-03T11:38:41;10.00;95.70
29453;DHT22;16424;50.956;5.320;2023-04-03T11:41:09;9.90;95.50
29453;DHT22;16424;50.956;5.320;2023-04-03T11:43:43;9.90;96.70
29453;DHT22;16424;50.956;5.320;2023-04-03T11:46:20;10.10;97.80
29453;DHT22;16424;50.956;5.320;2023-04-03T11:48:48;9.90;96.30
29453;DHT22;16424;50.956;5.320;2023-04-03T11:53:46;9.70;96.60
29453;DHT22;16424;50.956;5.320;2023-04-03T11:59:22;9.80;96.80
29453;DHT22;16424;50.956;5.320;2023-04-03T12:04:16;9.70;96.40
29453;DHT22;16424;50.956;5.320;2023-04-03T12:06:51;9.90;97.30
29453;DHT22;16424;50.956;5.320;2023-04-03T12:09:31;10.00;95.90
29453;DHT22;16424;50.956;5.320;2023-04-03T12:11:59;10.00;97.40
29453;DHT22;16424;50.956;5.320;2023-04-03T12:14:28;10.00;97.10
29453;DHT22;16424;50.956;5.320;2023-04-03T12:16:55;10.30;96.80
29453;DHT22;16424;50.956;5.320;2023-04-03T12:19:35;10.40;96.70
29453;DHT22;16424;50.956;5.320;2023-04-03T12:24:30;10.20;95.80
29453;DHT22;16424;50.956;5.320;2023-04-03T12:32:08;10.30;96.80
29453;DHT22;16424;50.956;5.320;2023-04-03T12:40:46;10.20;97.50
29453;DHT22;16424;50.956;5.320;2023-04-03T12:48:46;10.60;97.70
29453;DHT22;16424;50.956;5.320;2023-04-03T12:53:54;11.20;97.40
29453;DHT22;16424;50.956;5.320;2023-04-03T12:56:23;11.40;97.60
29453;DHT22;16424;50.956;5.320;2023-04-03T12:58:51;11.50;96.30
29453;DHT22;16424;50.956;5.320;2023-04-03T13:01:21;11.20;96.50
29453;DHT22;16424;50.956;5.320;2023-04-03T13:03:52;11.00;96.70
29453;DHT22;16424;50.956;5.320;2023-04-03T13:06:24;11.00;96.70
29453;DHT22;16424;50.956;5.320;2023-04-03T13:08:57;10.90;96.70
29453;DHT22;16424;50.956;5.320;2023-04-03T13:11:26;10.60;96.60
29453;DHT22;16424;50.956;5.320;2023-04-03T13:13:58;10.70;96.40
29453;DHT22;16424;50.956;5.320;2023-04-03T13:16:24;10.20;96.40
29453;DHT22;16424;50.956;5.320;2023-04-03T13:18:52;10.10;97.20
29453;DHT22;16424;50.956;5.320;2023-04-03T13:21:24;10.30;96.90
29453;DHT22;16424;50.956;5.320;2023-04-03T13:23:55;10.70;96.20
29453;DHT22;16424;50.956;5.320;2023-04-03T13:26:25;10.80;95.30
29453;DHT22;16424;50.956;5.320;2023-04-03T13:28:52;10.70;95.90
29453;DHT22;16424;50.956;5.320;2023-04-03T13:31:19;10.80;96.10
29453;DHT22;16424;50.956;5.320;2023-04-03T13:34:05;10.80;95.60
29453;DHT22;16424;50.956;5.320;2023-04-03T13:36:34;10.80;96.90
29453;DHT22;16424;50.956;5.320;2023-04-03T13:39:34;11.10;96.80
29453;DHT22;16424;50.956;5.320;2023-04-03T13:42:00;11.30;96.70
29453;DHT22;16424;50.956;5.320;2023-04-03T13:44:34;10.90;97.20
29453;DHT22;16424;50.956;5.320;2023-04-03T13:50:03;11.50;98.10
29453;DHT22;16424;50.956;5.320;2023-04-03T13:52:33;11.10;97.10
29453;DHT22;16424;50.956;5.320;2023-04-03T13:55:26;11.10;97.30
29453;DHT22;16424;50.956;5.320;2023-04-03T14:00:37;11.50;97.10
29453;DHT22;16424;50.956;5.320;2023-04-03T14:03:13;11.70;96.10
29453;DHT22;16424;50.956;5.320;2023-04-03T14:05:39;11.70;96.90
29453;DHT22;16424;50.956;5.320;2023-04-03T14:08:05;11.90;96.90
29453;DHT22;16424;50.956;5.320;2023-04-03T14:10:32;12.10;97.20
29453;DHT22;16424;50.956;5.320;2023-04-03T14:12:58;12.10;96.30
29453;DHT22;16424;50.956;5.320;2023-04-03T14:15:29;11.80;95.80
29453;DHT22;16424;50.956;5.320;2023-04-03T14:17:55;11.50;96.50
29453;DHT22;16424;50.956;5.320;2023-04-03T14:20:24;11.80;96.90
29453;DHT22;16424;50.956;5.320;2023-04-03T14:22:51;11.70;96.10
29453;DHT22;16424;50.956;5.320;2023-04-03T14:25:18;11.70;96.70
29453;DHT22;16424;50.956;5.320;2023-04-03T14:27:46;11.60;95.80
29453;DHT22;16424;50.956;5.320;2023-04-03T14:30:19;11.50;96.50
29453;DHT22;16424;50.956;5.320;2023-04-03T14:32:46;11.30;96.20
29453;DHT22;16424;50.956;5.320;2023-04-03T14:35:13;11.30;95.70
29453;DHT22;16424;50.956;5.320;2023-04-03T14:37:38;11.20;96.70
29453;DHT22;16424;50.956;5.320;2023-04-03T14:40:06;11.20;96.80
29453;DHT22;16424;50.956;5.320;2023-04-03T14:42:35;11.30;96.70
29453;DHT22;16424;50.956;5.320;2023-04-03T14:45:05;11.40;97.20
29453;DHT22;16424;50.956;5.320;2023-04-03T14:47:32;11.50;96.70
29453;DHT22;16424;50.956;5.320;2023-04-03T14:49:59;11.50;97.40
29453;DHT22;16424;50.956;5.320;2023-04-03T14:52:31;11.60;96.90
29453;DHT22;16424;50.956;5.320;2023-04-03T14:54:57;11.90;97.40
29453;DHT22;16424;50.956;5.320;2023-04-03T14:57:25;11.90;98.10
29453;DHT22;16424;50.956;5.320;2023-04-03T14:59:52;12.00;97.50
29453;DHT22;16424;50.956;5.320;2023-04-03T15:04:57;12.20;97.60
29453;DHT22;16424;50.956;5.320;2023-04-03T15:07:25;12.20;97.10
29453;DHT22;16424;50.956;5.320;2023-04-03T15:09:52;12.20;97.00
29453;DHT22;16424;50.956;5.320;2023-04-03T15:12:18;11.70;96.10
29453;DHT22;16424;50.956;5.320;2023-04-03T15:14:44;11.80;96.80
29453;DHT22;16424;50.956;5.320;2023-04-03T15:17:18;11.90;97.00
29453;DHT22;16424;50.956;5.320;2023-04-03T15:19:45;12.00;96.80
29453;DHT22;16424;50.956;5.320;2023-04-03T15:22:19;11.90;96.60
29453;DHT22;16424;50.956;5.320;2023-04-03T15:24:45;11.50;97.10
29453;DHT22;16424;50.956;5.320;2023-04-03T15:27:12;11.50;96.70
29453;DHT22;16424;50.956;5.320;2023-04-03T15:29:39;11.30;96.50
29453;DHT22;16424;50.956;5.320;2023-04-03T15:32:06;11.30;96.50
29453;DHT22;16424;50.956;5.320;2023-04-03T15:34:32;11.50;96.20
29453;DHT22;16424;50.956;5.320;2023-04-03T15:36:58;11.40;95.80
29453;DHT22;16424;50.956;5.320;2023-04-03T15:39:25;11.50;96.40
29453;DHT22;16424;50.956;5.320;2023-04-03T15:41:51;11.50;96.20
29453;DHT22;16424;50.956;5.320;2023-04-03T15:44:17;11.50;96.40
29453;DHT22;16424;50.956;5.320;2023-04-03T15:46:45;11.50;96.50
29453;DHT22;16424;50.956;5.320;2023-04-03T15:49:12;11.40;96.60
29453;DHT22;16424;50.956;5.320;2023-04-03T15:51:38;11.40;95.70
29453;DHT22;16424;50.956;5.320;2023-04-03T15:54:04;11.10;96.40
29453;DHT22;16424;50.956;5.320;2023-04-03T15:56:29;11.20;96.40
29453;DHT22;16424;50.956;5.320;2023-04-03T15:58:55;11.30;96.60
29453;DHT22;16424;50.956;5.320;2023-04-03T16:01:21;11.20;95.80
29453;DHT22;16424;50.956;5.320;2023-04-03T16:03:47;10.80;96.00
29453;DHT22;16424;50.956;5.320;2023-04-03T16:06:16;10.70;96.60
29453;DHT22;16424;50.956;5.320;2023-04-03T16:08:44;10.60;96.70
29453;DHT22;16424;50.956;5.320;2023-04-03T16:11:10;10.60;96.90
29453;DHT22;16424;50.956;5.320;2023-04-03T16:13:36;10.60;96.30
29453;DHT22;16424;50.956;5.320;2023-04-03T16:16:02;10.80;96.30
29453;DHT22;16424;50.956;5.320;2023-04-03T16:18:29;10.90;96.20
29453;DHT22;16424;50.956;5.320;2023-04-03T16:20:54;10.70;95.50
29453;DHT22;16424;50.956;5.320;2023-04-03T16:23:20;10.50;95.60
29453;DHT22;16424;50.956;5.320;2023-04-03T16:25:47;10.30;95.60
29453;DHT22;16424;50.956;5.320;2023-04-03T16:28:14;10.40;96.20
29453;DHT22;16424;50.956;5.320;2023-04-03T16:30:41;10.40;96.30
29453;DHT22;16424;50.956;5.320;2023-04-03T16:33:08;10.60;96.30
29453;DHT22;16424;50.956;5.320;2023-04-03T16:35:34;10.70;96.20
29453;DHT22;16424;50.956;5.320;2023-04-03T16:37:59;10.50;95.80
29453;DHT22;16424;50.956;5.320;2023-04-03T16:40:25;10.40;95.60
29453;DHT22;16424;50.956;5.320;2023-04-03T16:42:51;10.40;95.90
29453;DHT22;16424;50.956;5.320;2023-04-03T16:45:17;10.40;95.70
29453;DHT22;16424;50.956;5.320;2023-04-03T16:47:42;10.30;95.70
29453;DHT22;16424;50.956;5.320;2023-04-03T16:50:08;10.30;96.40
29453;DHT22;16424;50.956;5.320;2023-04-03T16:52:34;10.10;96.20
29453;DHT22;16424;50.956;5.320;2023-04-03T16:55:00;10.00;96.10
29453;DHT22;16424;50.956;5.320;2023-04-03T16:57:26;10.00;96.50
29453;DHT22;16424;50.956;5.320;2023-04-03T16:59:52;10.00;96.10
29453;DHT22;16424;50.956;5.320;2023-04-03T17:02:21;10.10;95.90
29453;DHT22;16424;50.956;5.320;2023-04-03T17:04:50;10.10;95.30
29453;DHT22;16424;50.956;5.320;2023-04-03T17:07:18;10.00;95.60
29453;DHT22;16424;50.956;5.320;2023-04-03T17:09:44;10.00;96.00
29453;DHT22;16424;50.956;5.320;2023-04-03T17:12:10;10.10;96.10
29453;DHT22;16424;50.956;5.320;2023-04-03T17:14:35;10.20;96.20
29453;DHT22;16424;50.956;5.320;2023-04-03T17:17:03;10.10;96.40
29453;DHT22;16424;50.956;5.320;2023-04-03T17:19:29;10.10;97.20
29453;DHT22;16424;50.956;5.320;2023-04-03T17:21:55;10.10;97.40
29453;DHT22;16424;50.956;5.320;2023-04-03T17:24:21;10.10;96.90
29453;DHT22;16424;50.956;5.320;2023-04-03T17:26:47;10.00;96.80
29453;DHT22;16424;50.956;5.320;2023-04-03T17:29:13;9.90;96.70
29453;DHT22;16424;50.956;5.320;2023-04-03T17:31:38;9.80;97.40
29453;DHT22;16424;50.956;5.320;2023-04-03T17:34:04;9.70;97.60
29453;DHT22;16424;50.956;5.320;2023-04-03T17:36:31;9.60;98.40